sensor_id;sensor_type;location;lat;lon;timestamp;P1;durP1;ratioP1;P2;durP2;ratioP2
30307;SDS011;17114;52.314;8.910;2023-07-30T00:00:43;6.45;;;3.55;;
30307;SDS011;17114;52.314;8.910;2023-07-30T00:03:10;5.47;;;3.95;;
30307;SDS011;17114;52.314;8.910;2023-07-30T00:05:37;5.15;;;3.78;;
30307;SDS011;17114;52.314;8.910;2023-07-30T00:08:04;5.97;;;3.53;;
30307;SDS011;17114;52.314;8.910;2023-07-30T00:10:31;6.07;;;3.90;;
30307;SDS011;17114;52.314;8.910;2023-07-30T00:12:57;5.15;;;3.83;;
30307;SDS011;17114;52.314;8.910;2023-07-30T00:15:24;6.03;;;4.13;;
30307;SDS011;17114;52.314;8.910;2023-07-30T00:17:51;7.43;;;4.47;;
30307;SDS011;17114;52.314;8.910;2023-07-30T00:20:18;7.18;;;4.10;;
30307;SDS011;17114;52.314;8.910;2023-07-30T00:22:46;9.48;;;5.15;;
30307;SDS011;17114;52.314;8.910;2023-07-30T00:25:13;8.35;;;4.20;;
30307;SDS011;17114;52.314;8.910;2023-07-30T00:27:39;8.23;;;4.22;;
30307;SDS011;17114;52.314;8.910;2023-07-30T00:30:07;9.23;;;4.97;;
30307;SDS011;17114;52.314;8.910;2023-07-30T00:32:34;9.02;;;4.43;;
30307;SDS011;17114;52.314;8.910;2023-07-30T00:35:00;10.60;;;4.65;;
30307;SDS011;17114;52.314;8.910;2023-07-30T00:37:27;7.55;;;4.63;;
30307;SDS011;17114;52.314;8.910;2023-07-30T00:39:54;6.18;;;4.63;;
30307;SDS011;17114;52.314;8.910;2023-07-30T00:42:21;6.53;;;4.63;;
30307;SDS011;17114;52.314;8.910;2023-07-30T00:44:48;6.07;;;4.65;;
30307;SDS011;17114;52.314;8.910;2023-07-30T00:47:14;7.07;;;4.53;;
30307;SDS011;17114;52.314;8.910;2023-07-30T00:49:41;6.40;;;4.97;;
30307;SDS011;17114;52.314;8.910;2023-07-30T00:52:08;8.80;;;5.60;;
30307;SDS011;17114;52.314;8.910;2023-07-30T00:54:35;6.80;;;4.95;;
30307;SDS011;17114;52.314;8.910;2023-07-30T00:57:02;7.15;;;4.82;;
30307;SDS011;17114;52.314;8.910;2023-07-30T00:59:29;8.55;;;5.15;;
30307;SDS011;17114;52.314;8.910;2023-07-30T01:01:56;7.22;;;4.47;;
30307;SDS011;17114;52.314;8.910;2023-07-30T01:04:25;5.95;;;4.40;;
30307;SDS011;17114;52.314;8.910;2023-07-30T01:06:52;6.90;;;4.43;;
30307;SDS011;17114;52.314;8.910;2023-07-30T01:09:19;7.10;;;4.60;;
30307;SDS011;17114;52.314;8.910;2023-07-30T01:11:46;8.18;;;4.43;;
30307;SDS011;17114;52.314;8.910;2023-07-30T01:14:13;5.28;;;4.10;;
30307;SDS011;17114;52.314;8.910;2023-07-30T01:16:41;7.28;;;4.50;;
30307;SDS011;17114;52.314;8.910;2023-07-30T01:19:08;6.65;;;3.72;;
30307;SDS011;17114;52.314;8.910;2023-07-30T01:21:36;6.82;;;4.40;;
30307;SDS011;17114;52.314;8.910;2023-07-30T01:24:04;9.25;;;4.20;;
30307;SDS011;17114;52.314;8.910;2023-07-30T01:26:37;9.70;;;3.90;;
30307;SDS011;17114;52.314;8.910;2023-07-30T01:32:23;5.85;;;3.90;;
30307;SDS011;17114;52.314;8.910;2023-07-30T01:34:52;9.27;;;3.90;;
30307;SDS011;17114;52.314;8.910;2023-07-30T01:37:20;6.93;;;4.22;;
30307;SDS011;17114;52.314;8.910;2023-07-30T01:39:48;6.45;;;3.85;;
30307;SDS011;17114;52.314;8.910;2023-07-30T01:42:16;8.45;;;4.35;;
30307;SDS011;17114;52.314;8.910;2023-07-30T01:44:43;8.00;;;3.83;;
30307;SDS011;17114;52.314;8.910;2023-07-30T01:47:10;5.18;;;3.80;;
30307;SDS011;17114;52.314;8.910;2023-07-30T01:49:37;7.80;;;3.80;;
30307;SDS011;17114;52.314;8.910;2023-07-30T01:52:03;8.05;;;4.07;;
30307;SDS011;17114;52.314;8.910;2023-07-30T01:54:30;9.60;;;4.40;;
30307;SDS011;17114;52.314;8.910;2023-07-30T01:56:59;9.45;;;4.53;;
30307;SDS011;17114;52.314;8.910;2023-07-30T01:59:26;8.60;;;4.45;;
30307;SDS011;17114;52.314;8.910;2023-07-30T02:01:53;11.10;;;4.32;;
30307;SDS011;17114;52.314;8.910;2023-07-30T02:04:20;10.10;;;4.43;;
30307;SDS011;17114;52.314;8.910;2023-07-30T02:06:46;11.27;;;5.18;;
30307;SDS011;17114;52.314;8.910;2023-07-30T02:09:13;9.52;;;4.57;;
30307;SDS011;17114;52.314;8.910;2023-07-30T02:11:40;8.90;;;4.75;;
30307;SDS011;17114;52.314;8.910;2023-07-30T02:14:08;9.48;;;4.47;;
30307;SDS011;17114;52.314;8.910;2023-07-30T02:16:35;10.35;;;4.40;;
30307;SDS011;17114;52.314;8.910;2023-07-30T02:19:02;8.68;;;4.50;;
30307;SDS011;17114;52.314;8.910;2023-07-30T02:21:29;12.30;;;5.07;;
30307;SDS011;17114;52.314;8.910;2023-07-30T02:23:59;12.52;;;5.65;;
30307;SDS011;17114;52.314;8.910;2023-07-30T02:26:26;11.00;;;5.03;;
30307;SDS011;17114;52.314;8.910;2023-07-30T02:28:52;10.07;;;5.07;;
30307;SDS011;17114;52.314;8.910;2023-07-30T02:31:19;12.02;;;5.45;;
30307;SDS011;17114;52.314;8.910;2023-07-30T02:33:46;13.05;;;5.40;;
30307;SDS011;17114;52.314;8.910;2023-07-30T02:36:13;11.18;;;5.30;;
30307;SDS011;17114;52.314;8.910;2023-07-30T02:38:40;10.50;;;5.13;;
30307;SDS011;17114;52.314;8.910;2023-07-30T02:41:06;7.88;;;4.72;;
30307;SDS011;17114;52.314;8.910;2023-07-30T02:43:33;10.38;;;4.85;;
30307;SDS011;17114;52.314;8.910;2023-07-30T02:46:00;8.20;;;4.78;;
30307;SDS011;17114;52.314;8.910;2023-07-30T02:48:27;9.57;;;4.68;;
30307;SDS011;17114;52.314;8.910;2023-07-30T02:50:54;13.00;;;4.95;;
30307;SDS011;17114;52.314;8.910;2023-07-30T02:53:20;8.07;;;4.85;;
30307;SDS011;17114;52.314;8.910;2023-07-30T02:55:47;13.90;;;5.22;;
30307;SDS011;17114;52.314;8.910;2023-07-30T02:58:14;12.00;;;5.43;;
30307;SDS011;17114;52.314;8.910;2023-07-30T03:00:41;15.25;;;5.35;;
30307;SDS011;17114;52.314;8.910;2023-07-30T03:03:08;11.65;;;5.55;;
30307;SDS011;17114;52.314;8.910;2023-07-30T03:05:35;12.82;;;6.05;;
30307;SDS011;17114;52.314;8.910;2023-07-30T03:08:02;14.68;;;6.72;;
30307;SDS011;17114;52.314;8.910;2023-07-30T03:10:29;11.80;;;6.00;;
30307;SDS011;17114;52.314;8.910;2023-07-30T03:12:56;10.93;;;6.60;;
30307;SDS011;17114;52.314;8.910;2023-07-30T03:15:22;14.90;;;7.07;;
30307;SDS011;17114;52.314;8.910;2023-07-30T03:17:49;15.70;;;6.38;;
30307;SDS011;17114;52.314;8.910;2023-07-30T03:20:16;11.13;;;6.82;;
30307;SDS011;17114;52.314;8.910;2023-07-30T03:22:44;14.10;;;7.72;;
30307;SDS011;17114;52.314;8.910;2023-07-30T03:25:11;13.02;;;6.90;;
30307;SDS011;17114;52.314;8.910;2023-07-30T03:27:38;15.15;;;7.32;;
30307;SDS011;17114;52.314;8.910;2023-07-30T03:30:05;14.50;;;7.72;;
30307;SDS011;17114;52.314;8.910;2023-07-30T03:32:32;12.13;;;8.00;;
30307;SDS011;17114;52.314;8.910;2023-07-30T03:34:59;13.80;;;7.50;;
30307;SDS011;17114;52.314;8.910;2023-07-30T03:37:25;15.32;;;8.20;;
30307;SDS011;17114;52.314;8.910;2023-07-30T03:39:52;18.17;;;7.72;;
30307;SDS011;17114;52.314;8.910;2023-07-30T03:42:19;19.45;;;8.55;;
30307;SDS011;17114;52.314;8.910;2023-07-30T03:44:46;15.85;;;8.07;;
30307;SDS011;17114;52.314;8.910;2023-07-30T03:47:13;12.52;;;7.75;;
30307;SDS011;17114;52.314;8.910;2023-07-30T03:49:40;14.05;;;7.75;;
30307;SDS011;17114;52.314;8.910;2023-07-30T03:52:07;16.85;;;8.35;;
30307;SDS011;17114;52.314;8.910;2023-07-30T03:54:34;12.82;;;7.65;;
30307;SDS011;17114;52.314;8.910;2023-07-30T03:57:00;16.20;;;8.48;;
30307;SDS011;17114;52.314;8.910;2023-07-30T03:59:27;16.02;;;7.70;;
30307;SDS011;17114;52.314;8.910;2023-07-30T04:01:54;12.75;;;7.97;;
30307;SDS011;17114;52.314;8.910;2023-07-30T04:04:21;16.85;;;8.20;;
30307;SDS011;17114;52.314;8.910;2023-07-30T04:06:48;15.40;;;8.98;;
30307;SDS011;17114;52.314;8.910;2023-07-30T04:09:15;13.50;;;8.00;;
30307;SDS011;17114;52.314;8.910;2023-07-30T04:11:42;16.85;;;8.52;;
30307;SDS011;17114;52.314;8.910;2023-07-30T04:14:08;13.63;;;8.27;;
30307;SDS011;17114;52.314;8.910;2023-07-30T04:16:35;16.77;;;9.40;;
30307;SDS011;17114;52.314;8.910;2023-07-30T04:19:02;14.13;;;8.73;;
30307;SDS011;17114;52.314;8.910;2023-07-30T04:21:29;18.30;;;9.55;;
30307;SDS011;17114;52.314;8.910;2023-07-30T04:23:56;14.95;;;9.73;;
30307;SDS011;17114;52.314;8.910;2023-07-30T04:26:23;15.25;;;9.43;;
30307;SDS011;17114;52.314;8.910;2023-07-30T04:28:49;15.82;;;10.32;;
30307;SDS011;17114;52.314;8.910;2023-07-30T04:31:16;17.10;;;11.27;;
30307;SDS011;17114;52.314;8.910;2023-07-30T04:33:43;17.20;;;10.60;;
30307;SDS011;17114;52.314;8.910;2023-07-30T04:36:10;17.17;;;10.38;;
30307;SDS011;17114;52.314;8.910;2023-07-30T04:38:37;17.05;;;10.02;;
30307;SDS011;17114;52.314;8.910;2023-07-30T04:41:03;17.10;;;10.25;;
30307;SDS011;17114;52.314;8.910;2023-07-30T04:43:30;14.23;;;9.40;;
30307;SDS011;17114;52.314;8.910;2023-07-30T04:45:57;15.55;;;8.90;;
30307;SDS011;17114;52.314;8.910;2023-07-30T04:48:24;18.60;;;8.65;;
30307;SDS011;17114;52.314;8.910;2023-07-30T04:50:51;17.00;;;8.20;;
30307;SDS011;17114;52.314;8.910;2023-07-30T04:53:18;15.63;;;7.65;;
30307;SDS011;17114;52.314;8.910;2023-07-30T04:55:46;14.20;;;7.75;;
30307;SDS011;17114;52.314;8.910;2023-07-30T04:58:13;12.35;;;6.40;;
30307;SDS011;17114;52.314;8.910;2023-07-30T05:00:40;17.92;;;7.00;;
30307;SDS011;17114;52.314;8.910;2023-07-30T05:03:07;12.43;;;5.35;;
30307;SDS011;17114;52.314;8.910;2023-07-30T05:05:34;12.68;;;6.05;;
30307;SDS011;17114;52.314;8.910;2023-07-30T05:08:01;13.43;;;5.28;;
30307;SDS011;17114;52.314;8.910;2023-07-30T05:10:27;11.32;;;5.38;;
30307;SDS011;17114;52.314;8.910;2023-07-30T05:12:54;8.95;;;4.68;;
30307;SDS011;17114;52.314;8.910;2023-07-30T05:15:21;10.32;;;4.45;;
30307;SDS011;17114;52.314;8.910;2023-07-30T05:17:48;13.02;;;4.55;;
30307;SDS011;17114;52.314;8.910;2023-07-30T05:20:15;9.00;;;3.97;;
30307;SDS011;17114;52.314;8.910;2023-07-30T05:22:42;12.27;;;4.03;;
30307;SDS011;17114;52.314;8.910;2023-07-30T05:25:09;13.90;;;4.03;;
30307;SDS011;17114;52.314;8.910;2023-07-30T05:27:39;10.15;;;3.28;;
30307;SDS011;17114;52.314;8.910;2023-07-30T05:30:06;9.05;;;3.38;;
30307;SDS011;17114;52.314;8.910;2023-07-30T05:32:33;10.13;;;3.40;;
30307;SDS011;17114;52.314;8.910;2023-07-30T05:35:00;9.95;;;3.67;;
30307;SDS011;17114;52.314;8.910;2023-07-30T05:37:28;10.15;;;3.42;;
30307;SDS011;17114;52.314;8.910;2023-07-30T05:39:55;7.53;;;3.60;;
30307;SDS011;17114;52.314;8.910;2023-07-30T05:42:21;12.25;;;3.63;;
30307;SDS011;17114;52.314;8.910;2023-07-30T05:44:48;11.88;;;3.53;;
30307;SDS011;17114;52.314;8.910;2023-07-30T05:47:15;11.77;;;3.53;;
30307;SDS011;17114;52.314;8.910;2023-07-30T05:49:42;12.95;;;3.58;;
30307;SDS011;17114;52.314;8.910;2023-07-30T05:52:09;8.90;;;3.05;;
30307;SDS011;17114;52.314;8.910;2023-07-30T05:54:35;10.27;;;3.28;;
30307;SDS011;17114;52.314;8.910;2023-07-30T05:57:02;9.57;;;3.20;;
30307;SDS011;17114;52.314;8.910;2023-07-30T05:59:29;7.22;;;3.10;;
30307;SDS011;17114;52.314;8.910;2023-07-30T06:01:56;7.50;;;2.80;;
30307;SDS011;17114;52.314;8.910;2023-07-30T06:04:25;8.68;;;3.10;;
30307;SDS011;17114;52.314;8.910;2023-07-30T06:06:52;12.65;;;3.13;;
30307;SDS011;17114;52.314;8.910;2023-07-30T06:09:19;12.18;;;3.70;;
30307;SDS011;17114;52.314;8.910;2023-07-30T06:11:45;9.88;;;3.33;;
30307;SDS011;17114;52.314;8.910;2023-07-30T06:14:12;12.18;;;2.97;;
30307;SDS011;17114;52.314;8.910;2023-07-30T06:16:39;11.00;;;3.50;;
30307;SDS011;17114;52.314;8.910;2023-07-30T06:19:06;10.15;;;3.03;;
30307;SDS011;17114;52.314;8.910;2023-07-30T06:21:33;10.15;;;3.15;;
30307;SDS011;17114;52.314;8.910;2023-07-30T06:24:00;11.35;;;3.50;;
30307;SDS011;17114;52.314;8.910;2023-07-30T06:26:26;9.93;;;3.38;;
30307;SDS011;17114;52.314;8.910;2023-07-30T06:28:53;11.52;;;3.28;;
30307;SDS011;17114;52.314;8.910;2023-07-30T06:31:20;8.18;;;3.40;;
30307;SDS011;17114;52.314;8.910;2023-07-30T06:33:47;7.32;;;3.15;;
30307;SDS011;17114;52.314;8.910;2023-07-30T06:36:14;11.77;;;3.42;;
30307;SDS011;17114;52.314;8.910;2023-07-30T06:38:40;9.85;;;3.35;;
30307;SDS011;17114;52.314;8.910;2023-07-30T06:41:07;9.05;;;3.20;;
30307;SDS011;17114;52.314;8.910;2023-07-30T06:43:34;9.55;;;3.65;;
30307;SDS011;17114;52.314;8.910;2023-07-30T06:46:01;7.35;;;3.00;;
30307;SDS011;17114;52.314;8.910;2023-07-30T06:48:28;14.95;;;3.78;;
30307;SDS011;17114;52.314;8.910;2023-07-30T06:50:55;11.52;;;3.72;;
30307;SDS011;17114;52.314;8.910;2023-07-30T06:53:22;14.07;;;3.90;;
30307;SDS011;17114;52.314;8.910;2023-07-30T06:55:49;17.85;;;3.97;;
30307;SDS011;17114;52.314;8.910;2023-07-30T06:58:16;13.27;;;4.10;;
30307;SDS011;17114;52.314;8.910;2023-07-30T07:00:43;10.93;;;4.28;;
30307;SDS011;17114;52.314;8.910;2023-07-30T07:03:10;12.27;;;5.45;;
30307;SDS011;17114;52.314;8.910;2023-07-30T07:05:36;12.38;;;4.50;;
30307;SDS011;17114;52.314;8.910;2023-07-30T07:08:03;15.57;;;5.15;;
30307;SDS011;17114;52.314;8.910;2023-07-30T07:10:30;11.40;;;4.28;;
30307;SDS011;17114;52.314;8.910;2023-07-30T07:12:57;15.13;;;5.10;;
30307;SDS011;17114;52.314;8.910;2023-07-30T07:15:24;15.98;;;4.78;;
30307;SDS011;17114;52.314;8.910;2023-07-30T07:17:51;18.38;;;5.60;;
30307;SDS011;17114;52.314;8.910;2023-07-30T07:20:18;15.63;;;4.75;;
30307;SDS011;17114;52.314;8.910;2023-07-30T07:22:45;12.13;;;5.10;;
30307;SDS011;17114;52.314;8.910;2023-07-30T07:25:11;13.43;;;4.38;;
30307;SDS011;17114;52.314;8.910;2023-07-30T07:27:38;16.92;;;5.18;;
30307;SDS011;17114;52.314;8.910;2023-07-30T07:30:05;17.65;;;4.50;;
30307;SDS011;17114;52.314;8.910;2023-07-30T07:32:33;13.80;;;4.75;;
30307;SDS011;17114;52.314;8.910;2023-07-30T07:35:04;13.23;;;4.82;;
30307;SDS011;17114;52.314;8.910;2023-07-30T07:37:32;13.43;;;4.68;;
30307;SDS011;17114;52.314;8.910;2023-07-30T07:39:59;12.55;;;4.88;;
30307;SDS011;17114;52.314;8.910;2023-07-30T07:42:26;13.45;;;4.88;;
30307;SDS011;17114;52.314;8.910;2023-07-30T07:44:53;13.70;;;5.15;;
30307;SDS011;17114;52.314;8.910;2023-07-30T07:47:19;16.38;;;6.18;;
30307;SDS011;17114;52.314;8.910;2023-07-30T07:49:46;11.32;;;5.18;;
30307;SDS011;17114;52.314;8.910;2023-07-30T07:52:14;14.93;;;5.50;;
30307;SDS011;17114;52.314;8.910;2023-07-30T07:54:41;17.98;;;6.60;;
30307;SDS011;17114;52.314;8.910;2023-07-30T07:57:08;19.75;;;6.53;;
30307;SDS011;17114;52.314;8.910;2023-07-30T07:59:38;15.85;;;7.25;;
30307;SDS011;17114;52.314;8.910;2023-07-30T08:02:05;15.52;;;6.93;;
30307;SDS011;17114;52.314;8.910;2023-07-30T08:04:32;17.15;;;7.13;;
30307;SDS011;17114;52.314;8.910;2023-07-30T08:07:00;19.80;;;7.93;;
30307;SDS011;17114;52.314;8.910;2023-07-30T08:09:29;21.33;;;9.45;;
30307;SDS011;17114;52.314;8.910;2023-07-30T08:11:57;22.58;;;7.55;;
30307;SDS011;17114;52.314;8.910;2023-07-30T08:14:24;24.10;;;6.65;;
30307;SDS011;17114;52.314;8.910;2023-07-30T08:16:51;15.43;;;6.05;;
30307;SDS011;17114;52.314;8.910;2023-07-30T08:19:18;15.15;;;6.63;;
30307;SDS011;17114;52.314;8.910;2023-07-30T08:21:45;24.95;;;7.63;;
30307;SDS011;17114;52.314;8.910;2023-07-30T08:24:12;19.05;;;7.57;;
30307;SDS011;17114;52.314;8.910;2023-07-30T08:26:39;17.55;;;7.32;;
30307;SDS011;17114;52.314;8.910;2023-07-30T08:29:06;16.08;;;7.95;;
30307;SDS011;17114;52.314;8.910;2023-07-30T08:31:34;18.23;;;8.02;;
30307;SDS011;17114;52.314;8.910;2023-07-30T08:34:02;17.10;;;7.95;;
30307;SDS011;17114;52.314;8.910;2023-07-30T08:36:28;19.65;;;8.95;;
30307;SDS011;17114;52.314;8.910;2023-07-30T08:38:55;15.98;;;8.40;;
30307;SDS011;17114;52.314;8.910;2023-07-30T08:41:22;22.10;;;9.93;;
30307;SDS011;17114;52.314;8.910;2023-07-30T08:43:49;20.63;;;10.65;;
30307;SDS011;17114;52.314;8.910;2023-07-30T08:46:18;18.95;;;9.52;;
30307;SDS011;17114;52.314;8.910;2023-07-30T08:48:45;19.65;;;9.95;;
30307;SDS011;17114;52.314;8.910;2023-07-30T08:51:15;14.13;;;9.82;;
30307;SDS011;17114;52.314;8.910;2023-07-30T08:53:42;23.77;;;9.68;;
30307;SDS011;17114;52.314;8.910;2023-07-30T08:56:09;20.20;;;10.80;;
30307;SDS011;17114;52.314;8.910;2023-07-30T08:58:37;17.55;;;9.82;;
30307;SDS011;17114;52.314;8.910;2023-07-30T09:01:08;20.85;;;11.23;;
30307;SDS011;17114;52.314;8.910;2023-07-30T09:03:37;23.98;;;10.82;;
30307;SDS011;17114;52.314;8.910;2023-07-30T09:06:06;18.38;;;10.27;;
30307;SDS011;17114;52.314;8.910;2023-07-30T09:08:33;16.33;;;10.52;;
30307;SDS011;17114;52.314;8.910;2023-07-30T09:11:10;16.67;;;10.48;;
30307;SDS011;17114;52.314;8.910;2023-07-30T09:13:42;15.32;;;10.02;;
30307;SDS011;17114;52.314;8.910;2023-07-30T09:16:09;15.02;;;9.85;;
30307;SDS011;17114;52.314;8.910;2023-07-30T09:18:41;19.98;;;9.93;;
30307;SDS011;17114;52.314;8.910;2023-07-30T09:21:12;13.68;;;8.68;;
30307;SDS011;17114;52.314;8.910;2023-07-30T09:23:40;13.25;;;8.85;;
30307;SDS011;17114;52.314;8.910;2023-07-30T09:26:08;16.83;;;9.48;;
30307;SDS011;17114;52.314;8.910;2023-07-30T09:28:35;17.83;;;9.40;;
30307;SDS011;17114;52.314;8.910;2023-07-30T09:31:03;21.50;;;10.20;;
30307;SDS011;17114;52.314;8.910;2023-07-30T09:33:47;17.02;;;9.30;;
30307;SDS011;17114;52.314;8.910;2023-07-30T09:36:13;18.92;;;9.25;;
30307;SDS011;17114;52.314;8.910;2023-07-30T09:38:44;17.48;;;9.15;;
30307;SDS011;17114;52.314;8.910;2023-07-30T09:41:12;17.80;;;9.13;;
30307;SDS011;17114;52.314;8.910;2023-07-30T09:43:41;18.27;;;9.70;;
30307;SDS011;17114;52.314;8.910;2023-07-30T09:46:08;18.33;;;8.63;;
30307;SDS011;17114;52.314;8.910;2023-07-30T09:48:35;19.15;;;9.52;;
30307;SDS011;17114;52.314;8.910;2023-07-30T09:51:02;17.05;;;8.77;;
30307;SDS011;17114;52.314;8.910;2023-07-30T09:53:30;20.60;;;10.02;;
30307;SDS011;17114;52.314;8.910;2023-07-30T09:56:02;20.42;;;9.73;;
30307;SDS011;17114;52.314;8.910;2023-07-30T09:58:29;17.92;;;9.85;;
30307;SDS011;17114;52.314;8.910;2023-07-30T10:00:58;19.00;;;10.35;;
30307;SDS011;17114;52.314;8.910;2023-07-30T10:03:26;21.88;;;11.90;;
30307;SDS011;17114;52.314;8.910;2023-07-30T10:05:58;24.13;;;10.73;;
30307;SDS011;17114;52.314;8.910;2023-07-30T10:08:30;27.33;;;11.68;;
30307;SDS011;17114;52.314;8.910;2023-07-30T10:11:00;19.60;;;11.07;;
30307;SDS011;17114;52.314;8.910;2023-07-30T10:13:30;27.42;;;12.60;;
30307;SDS011;17114;52.314;8.910;2023-07-30T10:15:58;26.58;;;12.40;;
30307;SDS011;17114;52.314;8.910;2023-07-30T10:18:47;27.77;;;11.60;;
30307;SDS011;17114;52.314;8.910;2023-07-30T10:21:21;31.15;;;11.68;;
30307;SDS011;17114;52.314;8.910;2023-07-30T10:23:50;24.17;;;11.23;;
30307;SDS011;17114;52.314;8.910;2023-07-30T10:26:32;23.55;;;9.55;;
30307;SDS011;17114;52.314;8.910;2023-07-30T10:29:18;21.63;;;9.25;;
30307;SDS011;17114;52.314;8.910;2023-07-30T10:34:21;26.30;;;9.32;;
30307;SDS011;17114;52.314;8.910;2023-07-30T10:36:52;17.70;;;8.32;;
30307;SDS011;17114;52.314;8.910;2023-07-30T10:39:25;21.27;;;9.35;;
30307;SDS011;17114;52.314;8.910;2023-07-30T10:41:54;18.52;;;7.68;;
30307;SDS011;17114;52.314;8.910;2023-07-30T10:44:23;22.13;;;7.80;;
30307;SDS011;17114;52.314;8.910;2023-07-30T10:46:56;19.63;;;7.10;;
30307;SDS011;17114;52.314;8.910;2023-07-30T10:49:24;19.05;;;7.50;;
30307;SDS011;17114;52.314;8.910;2023-07-30T10:52:04;16.77;;;7.43;;
30307;SDS011;17114;52.314;8.910;2023-07-30T10:54:37;15.65;;;7.13;;
30307;SDS011;17114;52.314;8.910;2023-07-30T10:57:05;14.10;;;7.05;;
30307;SDS011;17114;52.314;8.910;2023-07-30T10:59:35;13.85;;;7.18;;
30307;SDS011;17114;52.314;8.910;2023-07-30T11:02:03;19.52;;;7.00;;
30307;SDS011;17114;52.314;8.910;2023-07-30T11:04:33;14.65;;;7.07;;
30307;SDS011;17114;52.314;8.910;2023-07-30T11:07:01;17.83;;;7.35;;
30307;SDS011;17114;52.314;8.910;2023-07-30T11:09:30;15.57;;;7.72;;
30307;SDS011;17114;52.314;8.910;2023-07-30T11:11:57;29.23;;;8.55;;
30307;SDS011;17114;52.314;8.910;2023-07-30T11:14:24;15.30;;;7.10;;
30307;SDS011;17114;52.314;8.910;2023-07-30T11:19:26;18.90;;;7.28;;
30307;SDS011;17114;52.314;8.910;2023-07-30T11:21:55;19.58;;;7.72;;
30307;SDS011;17114;52.314;8.910;2023-07-30T11:24:36;19.23;;;7.40;;
30307;SDS011;17114;52.314;8.910;2023-07-30T11:27:03;15.38;;;6.75;;
30307;SDS011;17114;52.314;8.910;2023-07-30T11:29:31;16.00;;;6.45;;
30307;SDS011;17114;52.314;8.910;2023-07-30T11:31:58;18.67;;;6.22;;
30307;SDS011;17114;52.314;8.910;2023-07-30T11:34:26;13.65;;;6.47;;
30307;SDS011;17114;52.314;8.910;2023-07-30T11:36:54;18.00;;;6.30;;
30307;SDS011;17114;52.314;8.910;2023-07-30T11:39:23;16.02;;;7.25;;
30307;SDS011;17114;52.314;8.910;2023-07-30T11:41:50;16.30;;;7.00;;
30307;SDS011;17114;52.314;8.910;2023-07-30T11:44:34;15.32;;;7.43;;
30307;SDS011;17114;52.314;8.910;2023-07-30T11:47:06;14.50;;;6.85;;
30307;SDS011;17114;52.314;8.910;2023-07-30T11:49:35;18.23;;;7.80;;
30307;SDS011;17114;52.314;8.910;2023-07-30T11:52:09;13.70;;;7.45;;
30307;SDS011;17114;52.314;8.910;2023-07-30T11:54:36;13.20;;;7.03;;
30307;SDS011;17114;52.314;8.910;2023-07-30T11:57:07;14.93;;;7.20;;
30307;SDS011;17114;52.314;8.910;2023-07-30T11:59:35;18.40;;;7.97;;
30307;SDS011;17114;52.314;8.910;2023-07-30T12:02:05;16.05;;;8.15;;
30307;SDS011;17114;52.314;8.910;2023-07-30T12:04:47;13.30;;;7.38;;
30307;SDS011;17114;52.314;8.910;2023-07-30T12:07:32;13.60;;;6.97;;
30307;SDS011;17114;52.314;8.910;2023-07-30T12:10:19;12.55;;;6.30;;
30307;SDS011;17114;52.314;8.910;2023-07-30T12:12:46;11.38;;;5.90;;
30307;SDS011;17114;52.314;8.910;2023-07-30T12:15:19;13.57;;;6.05;;
30307;SDS011;17114;52.314;8.910;2023-07-30T12:17:45;11.88;;;5.40;;
30307;SDS011;17114;52.314;8.910;2023-07-30T12:20:13;9.75;;;4.93;;
30307;SDS011;17114;52.314;8.910;2023-07-30T12:22:39;10.18;;;5.65;;
30307;SDS011;17114;52.314;8.910;2023-07-30T12:25:08;12.57;;;5.05;;
30307;SDS011;17114;52.314;8.910;2023-07-30T12:27:36;9.40;;;4.78;;
30307;SDS011;17114;52.314;8.910;2023-07-30T12:30:03;7.50;;;4.30;;
30307;SDS011;17114;52.314;8.910;2023-07-30T12:32:31;15.27;;;5.07;;
30307;SDS011;17114;52.314;8.910;2023-07-30T12:34:58;10.00;;;4.50;;
30307;SDS011;17114;52.314;8.910;2023-07-30T12:37:24;9.80;;;3.97;;
30307;SDS011;17114;52.314;8.910;2023-07-30T12:39:51;7.57;;;4.07;;
30307;SDS011;17114;52.314;8.910;2023-07-30T12:42:18;11.45;;;4.00;;
30307;SDS011;17114;52.314;8.910;2023-07-30T12:44:45;8.25;;;4.30;;
30307;SDS011;17114;52.314;8.910;2023-07-30T12:47:12;12.45;;;3.47;;
30307;SDS011;17114;52.314;8.910;2023-07-30T12:49:38;9.43;;;3.63;;
30307;SDS011;17114;52.314;8.910;2023-07-30T12:52:05;8.55;;;3.40;;
30307;SDS011;17114;52.314;8.910;2023-07-30T12:54:32;8.18;;;3.35;;
30307;SDS011;17114;52.314;8.910;2023-07-30T12:56:59;8.93;;;3.67;;
30307;SDS011;17114;52.314;8.910;2023-07-30T12:59:26;11.18;;;3.38;;
30307;SDS011;17114;52.314;8.910;2023-07-30T13:01:53;8.25;;;3.10;;
30307;SDS011;17114;52.314;8.910;2023-07-30T13:04:20;7.70;;;2.67;;
30307;SDS011;17114;52.314;8.910;2023-07-30T13:06:47;8.52;;;2.80;;
30307;SDS011;17114;52.314;8.910;2023-07-30T13:09:14;8.05;;;2.78;;
30307;SDS011;17114;52.314;8.910;2023-07-30T13:11:41;7.25;;;2.70;;
30307;SDS011;17114;52.314;8.910;2023-07-30T13:14:07;9.45;;;2.95;;
30307;SDS011;17114;52.314;8.910;2023-07-30T13:16:34;8.38;;;2.60;;
30307;SDS011;17114;52.314;8.910;2023-07-30T13:19:01;7.97;;;2.72;;
30307;SDS011;17114;52.314;8.910;2023-07-30T13:21:28;6.72;;;2.08;;
30307;SDS011;17114;52.314;8.910;2023-07-30T13:23:55;6.47;;;2.13;;
30307;SDS011;17114;52.314;8.910;2023-07-30T13:26:21;10.38;;;2.35;;
30307;SDS011;17114;52.314;8.910;2023-07-30T13:28:48;7.68;;;2.38;;
30307;SDS011;17114;52.314;8.910;2023-07-30T13:31:16;6.63;;;1.90;;
30307;SDS011;17114;52.314;8.910;2023-07-30T13:33:45;7.22;;;1.70;;
30307;SDS011;17114;52.314;8.910;2023-07-30T13:36:13;9.40;;;1.98;;
30307;SDS011;17114;52.314;8.910;2023-07-30T13:38:40;7.88;;;1.73;;
30307;SDS011;17114;52.314;8.910;2023-07-30T13:41:09;4.38;;;2.00;;
30307;SDS011;17114;52.314;8.910;2023-07-30T13:43:36;8.55;;;2.00;;
30307;SDS011;17114;52.314;8.910;2023-07-30T13:46:03;8.35;;;2.30;;
30307;SDS011;17114;52.314;8.910;2023-07-30T13:48:30;4.95;;;1.58;;
30307;SDS011;17114;52.314;8.910;2023-07-30T13:50:57;8.40;;;2.05;;
30307;SDS011;17114;52.314;8.910;2023-07-30T13:53:24;6.28;;;1.60;;
30307;SDS011;17114;52.314;8.910;2023-07-30T13:55:51;12.18;;;2.53;;
30307;SDS011;17114;52.314;8.910;2023-07-30T13:58:18;9.23;;;1.95;;
30307;SDS011;17114;52.314;8.910;2023-07-30T14:00:45;5.88;;;1.80;;
30307;SDS011;17114;52.314;8.910;2023-07-30T14:03:12;5.18;;;1.98;;
30307;SDS011;17114;52.314;8.910;2023-07-30T14:05:39;4.97;;;1.52;;
30307;SDS011;17114;52.314;8.910;2023-07-30T14:08:06;5.22;;;1.48;;
30307;SDS011;17114;52.314;8.910;2023-07-30T14:10:33;6.68;;;1.85;;
30307;SDS011;17114;52.314;8.910;2023-07-30T14:12:59;7.72;;;1.90;;
30307;SDS011;17114;52.314;8.910;2023-07-30T14:15:26;8.52;;;2.08;;
30307;SDS011;17114;52.314;8.910;2023-07-30T14:17:53;9.13;;;2.67;;
30307;SDS011;17114;52.314;8.910;2023-07-30T14:20:21;7.45;;;2.40;;
30307;SDS011;17114;52.314;8.910;2023-07-30T14:22:48;7.85;;;1.92;;
30307;SDS011;17114;52.314;8.910;2023-07-30T14:25:15;6.25;;;1.88;;
30307;SDS011;17114;52.314;8.910;2023-07-30T14:27:42;10.32;;;2.28;;
30307;SDS011;17114;52.314;8.910;2023-07-30T14:30:09;5.38;;;1.83;;
30307;SDS011;17114;52.314;8.910;2023-07-30T14:32:36;7.57;;;1.85;;
30307;SDS011;17114;52.314;8.910;2023-07-30T14:35:03;8.30;;;1.65;;
30307;SDS011;17114;52.314;8.910;2023-07-30T14:37:30;4.18;;;1.42;;
30307;SDS011;17114;52.314;8.910;2023-07-30T14:39:57;5.00;;;1.73;;
30307;SDS011;17114;52.314;8.910;2023-07-30T14:42:24;7.18;;;1.40;;
30307;SDS011;17114;52.314;8.910;2023-07-30T14:44:51;7.90;;;1.65;;
30307;SDS011;17114;52.314;8.910;2023-07-30T14:47:17;6.88;;;2.00;;
30307;SDS011;17114;52.314;8.910;2023-07-30T14:49:44;6.00;;;1.90;;